sensor_id;sensor_type;location;lat;lon;timestamp;P1;durP1;ratioP1;P2;durP2;ratioP2
36449;SDS011;22475;51.390;7.180;2024-03-06T00:00:59;23.38;;;13.63;;
36449;SDS011;22475;51.390;7.180;2024-03-06T00:03:27;19.92;;;13.02;;
36449;SDS011;22475;51.390;7.180;2024-03-06T00:05:53;19.30;;;12.43;;
36449;SDS011;22475;51.390;7.180;2024-03-06T00:08:20;17.30;;;12.50;;
36449;SDS011;22475;51.390;7.180;2024-03-06T00:10:47;20.02;;;12.38;;
36449;SDS011;22475;51.390;7.180;2024-03-06T00:13:14;20.27;;;12.52;;
36449;SDS011;22475;51.390;7.180;2024-03-06T00:15:40;19.10;;;12.98;;
36449;SDS011;22475;51.390;7.180;2024-03-06T00:18:07;22.92;;;12.75;;
36449;SDS011;22475;51.390;7.180;2024-03-06T00:20:37;17.75;;;10.93;;
36449;SDS011;22475;51.390;7.180;2024-03-06T00:23:05;16.13;;;10.15;;
36449;SDS011;22475;51.390;7.180;2024-03-06T00:25:32;13.48;;;10.45;;
36449;SDS011;22475;51.390;7.180;2024-03-06T00:27:59;18.90;;;11.15;;
36449;SDS011;22475;51.390;7.180;2024-03-06T00:30:26;18.00;;;10.95;;
36449;SDS011;22475;51.390;7.180;2024-03-06T00:32:53;17.20;;;11.48;;
36449;SDS011;22475;51.390;7.180;2024-03-06T00:35:19;15.45;;;11.23;;
36449;SDS011;22475;51.390;7.180;2024-03-06T00:37:48;13.68;;;10.18;;
36449;SDS011;22475;51.390;7.180;2024-03-06T00:40:14;19.65;;;11.32;;
36449;SDS011;22475;51.390;7.180;2024-03-06T00:42:41;16.83;;;11.60;;
36449;SDS011;22475;51.390;7.180;2024-03-06T00:45:08;22.58;;;11.95;;
36449;SDS011;22475;51.390;7.180;2024-03-06T00:47:35;14.85;;;10.57;;
36449;SDS011;22475;51.390;7.180;2024-03-06T00:50:02;17.13;;;11.73;;
36449;SDS011;22475;51.390;7.180;2024-03-06T00:52:31;11.65;;;9.45;;
36449;SDS011;22475;51.390;7.180;2024-03-06T00:54:59;13.20;;;10.77;;
36449;SDS011;22475;51.390;7.180;2024-03-06T00:57:26;16.13;;;10.82;;
36449;SDS011;22475;51.390;7.180;2024-03-06T00:59:53;15.63;;;10.88;;
36449;SDS011;22475;51.390;7.180;2024-03-06T01:02:20;12.20;;;9.95;;
36449;SDS011;22475;51.390;7.180;2024-03-06T01:04:46;16.63;;;10.32;;
36449;SDS011;22475;51.390;7.180;2024-03-06T01:07:13;12.10;;;9.43;;
36449;SDS011;22475;51.390;7.180;2024-03-06T01:09:40;13.43;;;9.85;;
36449;SDS011;22475;51.390;7.180;2024-03-06T01:12:08;16.00;;;10.13;;
36449;SDS011;22475;51.390;7.180;2024-03-06T01:14:36;19.55;;;11.18;;
36449;SDS011;22475;51.390;7.180;2024-03-06T01:17:02;13.68;;;10.20;;
36449;SDS011;22475;51.390;7.180;2024-03-06T01:19:30;17.48;;;10.50;;
36449;SDS011;22475;51.390;7.180;2024-03-06T01:21:57;14.05;;;10.70;;
36449;SDS011;22475;51.390;7.180;2024-03-06T01:24:23;14.68;;;11.18;;
36449;SDS011;22475;51.390;7.180;2024-03-06T01:26:50;18.88;;;11.68;;
36449;SDS011;22475;51.390;7.180;2024-03-06T01:29:18;13.63;;;9.27;;
36449;SDS011;22475;51.390;7.180;2024-03-06T01:31:45;15.15;;;10.63;;
36449;SDS011;22475;51.390;7.180;2024-03-06T01:34:12;15.50;;;11.23;;
36449;SDS011;22475;51.390;7.180;2024-03-06T01:36:39;15.05;;;10.77;;
36449;SDS011;22475;51.390;7.180;2024-03-06T01:39:06;18.85;;;11.43;;
36449;SDS011;22475;51.390;7.180;2024-03-06T01:41:32;16.13;;;10.55;;
36449;SDS011;22475;51.390;7.180;2024-03-06T01:43:59;15.77;;;10.27;;
36449;SDS011;22475;51.390;7.180;2024-03-06T01:46:28;15.27;;;10.95;;
36449;SDS011;22475;51.390;7.180;2024-03-06T01:48:55;13.85;;;10.60;;
36449;SDS011;22475;51.390;7.180;2024-03-06T01:51:22;17.77;;;11.82;;
36449;SDS011;22475;51.390;7.180;2024-03-06T01:53:49;14.50;;;10.82;;
36449;SDS011;22475;51.390;7.180;2024-03-06T01:56:16;18.52;;;12.38;;
36449;SDS011;22475;51.390;7.180;2024-03-06T01:58:43;14.35;;;10.80;;
36449;SDS011;22475;51.390;7.180;2024-03-06T02:01:13;18.50;;;10.77;;
36449;SDS011;22475;51.390;7.180;2024-03-06T02:03:42;16.60;;;11.18;;
36449;SDS011;22475;51.390;7.180;2024-03-06T02:06:09;14.38;;;10.10;;
36449;SDS011;22475;51.390;7.180;2024-03-06T02:08:37;14.98;;;10.52;;
36449;SDS011;22475;51.390;7.180;2024-03-06T02:11:04;14.52;;;10.75;;
36449;SDS011;22475;51.390;7.180;2024-03-06T02:13:32;15.52;;;10.63;;
36449;SDS011;22475;51.390;7.180;2024-03-06T02:15:59;14.00;;;9.80;;
36449;SDS011;22475;51.390;7.180;2024-03-06T02:18:26;13.50;;;9.43;;
36449;SDS011;22475;51.390;7.180;2024-03-06T02:20:54;15.60;;;10.52;;
36449;SDS011;22475;51.390;7.180;2024-03-06T02:23:20;13.70;;;9.43;;
36449;SDS011;22475;51.390;7.180;2024-03-06T02:25:48;12.45;;;9.55;;
36449;SDS011;22475;51.390;7.180;2024-03-06T02:28:15;11.38;;;9.80;;
36449;SDS011;22475;51.390;7.180;2024-03-06T02:30:42;13.15;;;9.93;;
36449;SDS011;22475;51.390;7.180;2024-03-06T02:33:08;14.88;;;9.68;;
36449;SDS011;22475;51.390;7.180;2024-03-06T02:35:35;14.48;;;10.20;;
36449;SDS011;22475;51.390;7.180;2024-03-06T02:38:05;13.10;;;10.63;;
36449;SDS011;22475;51.390;7.180;2024-03-06T02:40:32;14.85;;;10.05;;
36449;SDS011;22475;51.390;7.180;2024-03-06T02:42:59;13.45;;;10.55;;
36449;SDS011;22475;51.390;7.180;2024-03-06T02:45:26;12.75;;;9.63;;
36449;SDS011;22475;51.390;7.180;2024-03-06T02:47:53;13.88;;;9.45;;
36449;SDS011;22475;51.390;7.180;2024-03-06T02:50:19;14.10;;;9.57;;
36449;SDS011;22475;51.390;7.180;2024-03-06T02:52:48;15.35;;;9.65;;
36449;SDS011;22475;51.390;7.180;2024-03-06T02:55:18;14.40;;;9.75;;
36449;SDS011;22475;51.390;7.180;2024-03-06T02:57:45;14.98;;;8.98;;
36449;SDS011;22475;51.390;7.180;2024-03-06T03:00:12;12.15;;;9.77;;
36449;SDS011;22475;51.390;7.180;2024-03-06T03:02:41;11.98;;;9.45;;
36449;SDS011;22475;51.390;7.180;2024-03-06T03:05:08;18.13;;;10.75;;
36449;SDS011;22475;51.390;7.180;2024-03-06T03:07:35;15.45;;;10.05;;
36449;SDS011;22475;51.390;7.180;2024-03-06T03:10:02;18.30;;;11.00;;
36449;SDS011;22475;51.390;7.180;2024-03-06T03:12:32;13.65;;;9.02;;
36449;SDS011;22475;51.390;7.180;2024-03-06T03:14:59;14.13;;;10.45;;
36449;SDS011;22475;51.390;7.180;2024-03-06T03:17:26;13.43;;;8.85;;
36449;SDS011;22475;51.390;7.180;2024-03-06T03:19:53;14.75;;;10.57;;
36449;SDS011;22475;51.390;7.180;2024-03-06T03:22:19;13.85;;;9.52;;
36449;SDS011;22475;51.390;7.180;2024-03-06T03:24:46;13.18;;;9.82;;
36449;SDS011;22475;51.390;7.180;2024-03-06T03:27:13;12.75;;;9.15;;
36449;SDS011;22475;51.390;7.180;2024-03-06T03:29:41;18.67;;;10.77;;
36449;SDS011;22475;51.390;7.180;2024-03-06T03:32:08;14.27;;;9.35;;
36449;SDS011;22475;51.390;7.180;2024-03-06T03:34:35;11.80;;;8.75;;
36449;SDS011;22475;51.390;7.180;2024-03-06T03:37:02;15.63;;;9.68;;
36449;SDS011;22475;51.390;7.180;2024-03-06T03:39:29;14.23;;;10.35;;
36449;SDS011;22475;51.390;7.180;2024-03-06T03:41:56;12.63;;;9.55;;
36449;SDS011;22475;51.390;7.180;2024-03-06T03:44:23;19.90;;;11.18;;
36449;SDS011;22475;51.390;7.180;2024-03-06T03:46:51;16.45;;;10.45;;
36449;SDS011;22475;51.390;7.180;2024-03-06T03:49:18;14.50;;;10.38;;
36449;SDS011;22475;51.390;7.180;2024-03-06T03:51:45;17.98;;;9.85;;
36449;SDS011;22475;51.390;7.180;2024-03-06T03:54:11;19.85;;;11.57;;
36449;SDS011;22475;51.390;7.180;2024-03-06T03:56:39;13.50;;;9.88;;
36449;SDS011;22475;51.390;7.180;2024-03-06T03:59:05;14.40;;;9.75;;
36449;SDS011;22475;51.390;7.180;2024-03-06T04:01:33;17.08;;;10.15;;
36449;SDS011;22475;51.390;7.180;2024-03-06T04:04:01;19.50;;;10.70;;
36449;SDS011;22475;51.390;7.180;2024-03-06T04:06:28;19.60;;;12.18;;
36449;SDS011;22475;51.390;7.180;2024-03-06T04:08:55;18.45;;;11.88;;
36449;SDS011;22475;51.390;7.180;2024-03-06T04:11:21;16.95;;;10.10;;
36449;SDS011;22475;51.390;7.180;2024-03-06T04:13:48;13.32;;;9.75;;
36449;SDS011;22475;51.390;7.180;2024-03-06T04:16:15;17.63;;;11.50;;
36449;SDS011;22475;51.390;7.180;2024-03-06T04:18:43;20.67;;;12.38;;
36449;SDS011;22475;51.390;7.180;2024-03-06T04:21:12;21.90;;;12.65;;
36449;SDS011;22475;51.390;7.180;2024-03-06T04:23:40;22.27;;;13.85;;
36449;SDS011;22475;51.390;7.180;2024-03-06T04:26:07;17.77;;;11.18;;
36449;SDS011;22475;51.390;7.180;2024-03-06T04:28:33;16.80;;;12.18;;
36449;SDS011;22475;51.390;7.180;2024-03-06T04:31:00;18.92;;;10.93;;
36449;SDS011;22475;51.390;7.180;2024-03-06T04:33:27;17.08;;;11.55;;
36449;SDS011;22475;51.390;7.180;2024-03-06T04:35:54;14.60;;;10.70;;
36449;SDS011;22475;51.390;7.180;2024-03-06T04:38:22;19.08;;;11.95;;
36449;SDS011;22475;51.390;7.180;2024-03-06T04:40:49;18.83;;;12.55;;
36449;SDS011;22475;51.390;7.180;2024-03-06T04:43:16;16.73;;;11.10;;
36449;SDS011;22475;51.390;7.180;2024-03-06T04:45:43;17.63;;;10.68;;
36449;SDS011;22475;51.390;7.180;2024-03-06T04:48:09;20.67;;;13.07;;
36449;SDS011;22475;51.390;7.180;2024-03-06T04:50:37;19.25;;;11.45;;
36449;SDS011;22475;51.390;7.180;2024-03-06T04:53:04;18.05;;;11.77;;
36449;SDS011;22475;51.390;7.180;2024-03-06T04:55:32;18.83;;;11.30;;
36449;SDS011;22475;51.390;7.180;2024-03-06T04:58:02;16.27;;;10.93;;
36449;SDS011;22475;51.390;7.180;2024-03-06T05:00:29;22.52;;;12.32;;
36449;SDS011;22475;51.390;7.180;2024-03-06T05:02:56;18.42;;;11.20;;
36449;SDS011;22475;51.390;7.180;2024-03-06T05:05:23;18.17;;;11.57;;
36449;SDS011;22475;51.390;7.180;2024-03-06T05:07:50;24.67;;;12.20;;
36449;SDS011;22475;51.390;7.180;2024-03-06T05:10:17;27.35;;;12.75;;
36449;SDS011;22475;51.390;7.180;2024-03-06T05:12:45;25.58;;;13.50;;
36449;SDS011;22475;51.390;7.180;2024-03-06T05:15:13;21.98;;;13.18;;
36449;SDS011;22475;51.390;7.180;2024-03-06T05:17:40;23.98;;;13.98;;
36449;SDS011;22475;51.390;7.180;2024-03-06T05:20:07;18.45;;;12.90;;
36449;SDS011;22475;51.390;7.180;2024-03-06T05:22:34;20.45;;;12.27;;
36449;SDS011;22475;51.390;7.180;2024-03-06T05:25:01;18.48;;;10.90;;
36449;SDS011;22475;51.390;7.180;2024-03-06T05:27:28;19.27;;;12.20;;
36449;SDS011;22475;51.390;7.180;2024-03-06T05:29:56;20.23;;;11.85;;
36449;SDS011;22475;51.390;7.180;2024-03-06T05:32:23;18.90;;;11.23;;
36449;SDS011;22475;51.390;7.180;2024-03-06T05:34:50;17.60;;;11.65;;
36449;SDS011;22475;51.390;7.180;2024-03-06T05:37:17;19.10;;;11.80;;
36449;SDS011;22475;51.390;7.180;2024-03-06T05:39:44;22.60;;;12.48;;
36449;SDS011;22475;51.390;7.180;2024-03-06T05:42:11;17.67;;;11.65;;
36449;SDS011;22475;51.390;7.180;2024-03-06T05:44:38;25.83;;;12.43;;
36449;SDS011;22475;51.390;7.180;2024-03-06T05:47:07;24.23;;;12.57;;
36449;SDS011;22475;51.390;7.180;2024-03-06T05:49:34;22.02;;;12.27;;
36449;SDS011;22475;51.390;7.180;2024-03-06T05:52:01;21.80;;;12.73;;
36449;SDS011;22475;51.390;7.180;2024-03-06T05:54:27;19.88;;;11.95;;
36449;SDS011;22475;51.390;7.180;2024-03-06T05:56:58;25.92;;;14.73;;
36449;SDS011;22475;51.390;7.180;2024-03-06T05:59:25;24.52;;;13.77;;
36449;SDS011;22475;51.390;7.180;2024-03-06T06:01:52;25.15;;;16.05;;
36449;SDS011;22475;51.390;7.180;2024-03-06T06:04:20;22.58;;;14.80;;
36449;SDS011;22475;51.390;7.180;2024-03-06T06:06:47;26.60;;;15.25;;
36449;SDS011;22475;51.390;7.180;2024-03-06T06:09:13;22.58;;;12.50;;
36449;SDS011;22475;51.390;7.180;2024-03-06T06:11:42;28.52;;;15.52;;
36449;SDS011;22475;51.390;7.180;2024-03-06T06:14:09;25.98;;;14.18;;
36449;SDS011;22475;51.390;7.180;2024-03-06T06:16:36;28.90;;;13.00;;
36449;SDS011;22475;51.390;7.180;2024-03-06T06:19:03;26.58;;;15.65;;
36449;SDS011;22475;51.390;7.180;2024-03-06T06:21:32;25.77;;;14.73;;
36449;SDS011;22475;51.390;7.180;2024-03-06T06:24:00;25.23;;;13.90;;
36449;SDS011;22475;51.390;7.180;2024-03-06T06:26:28;26.15;;;15.35;;
36449;SDS011;22475;51.390;7.180;2024-03-06T06:28:55;24.73;;;14.98;;
36449;SDS011;22475;51.390;7.180;2024-03-06T06:31:22;24.33;;;13.90;;
36449;SDS011;22475;51.390;7.180;2024-03-06T06:33:50;24.35;;;14.13;;
36449;SDS011;22475;51.390;7.180;2024-03-06T06:36:17;25.33;;;14.70;;
36449;SDS011;22475;51.390;7.180;2024-03-06T06:38:46;22.63;;;13.52;;
36449;SDS011;22475;51.390;7.180;2024-03-06T06:41:13;28.35;;;15.30;;
36449;SDS011;22475;51.390;7.180;2024-03-06T06:43:40;28.83;;;14.27;;
36449;SDS011;22475;51.390;7.180;2024-03-06T06:46:07;25.30;;;14.45;;
36449;SDS011;22475;51.390;7.180;2024-03-06T06:48:34;29.65;;;14.65;;
36449;SDS011;22475;51.390;7.180;2024-03-06T06:51:01;28.25;;;14.02;;
36449;SDS011;22475;51.390;7.180;2024-03-06T06:53:28;22.85;;;13.55;;
36449;SDS011;22475;51.390;7.180;2024-03-06T06:55:56;24.92;;;13.48;;
36449;SDS011;22475;51.390;7.180;2024-03-06T06:58:23;25.67;;;13.88;;
36449;SDS011;22475;51.390;7.180;2024-03-06T07:00:52;29.75;;;15.18;;
36449;SDS011;22475;51.390;7.180;2024-03-06T07:03:18;28.42;;;15.30;;
36449;SDS011;22475;51.390;7.180;2024-03-06T07:05:46;25.50;;;15.07;;
36449;SDS011;22475;51.390;7.180;2024-03-06T07:08:13;28.27;;;15.55;;
36449;SDS011;22475;51.390;7.180;2024-03-06T07:10:40;25.10;;;14.52;;
36449;SDS011;22475;51.390;7.180;2024-03-06T07:13:08;31.23;;;16.17;;
36449;SDS011;22475;51.390;7.180;2024-03-06T07:15:35;25.15;;;14.45;;
36449;SDS011;22475;51.390;7.180;2024-03-06T07:18:02;27.50;;;15.40;;
36449;SDS011;22475;51.390;7.180;2024-03-06T07:20:29;27.45;;;16.55;;
36449;SDS011;22475;51.390;7.180;2024-03-06T07:22:56;26.85;;;14.88;;
36449;SDS011;22475;51.390;7.180;2024-03-06T07:25:23;31.00;;;16.65;;
36449;SDS011;22475;51.390;7.180;2024-03-06T07:27:50;32.58;;;17.42;;
36449;SDS011;22475;51.390;7.180;2024-03-06T07:30:19;30.75;;;16.20;;
36449;SDS011;22475;51.390;7.180;2024-03-06T07:32:46;33.33;;;17.75;;
36449;SDS011;22475;51.390;7.180;2024-03-06T07:35:13;31.90;;;17.33;;
36449;SDS011;22475;51.390;7.180;2024-03-06T07:37:40;41.35;;;20.13;;
36449;SDS011;22475;51.390;7.180;2024-03-06T07:40:09;30.55;;;16.58;;
36449;SDS011;22475;51.390;7.180;2024-03-06T07:42:36;32.88;;;16.17;;
36449;SDS011;22475;51.390;7.180;2024-03-06T07:45:04;30.75;;;17.48;;
36449;SDS011;22475;51.390;7.180;2024-03-06T07:47:33;30.27;;;17.50;;
36449;SDS011;22475;51.390;7.180;2024-03-06T07:50:02;25.75;;;15.90;;
36449;SDS011;22475;51.390;7.180;2024-03-06T07:52:30;32.97;;;16.33;;
36449;SDS011;22475;51.390;7.180;2024-03-06T07:54:58;30.13;;;17.20;;
36449;SDS011;22475;51.390;7.180;2024-03-06T07:57:24;27.65;;;15.63;;
36449;SDS011;22475;51.390;7.180;2024-03-06T07:59:51;27.80;;;16.95;;
36449;SDS011;22475;51.390;7.180;2024-03-06T08:02:19;26.35;;;14.85;;
36449;SDS011;22475;51.390;7.180;2024-03-06T08:04:48;32.80;;;16.13;;
36449;SDS011;22475;51.390;7.180;2024-03-06T08:07:15;28.23;;;15.55;;
36449;SDS011;22475;51.390;7.180;2024-03-06T08:09:41;30.42;;;17.48;;
36449;SDS011;22475;51.390;7.180;2024-03-06T08:12:09;28.55;;;15.68;;
36449;SDS011;22475;51.390;7.180;2024-03-06T08:14:35;29.85;;;17.40;;
36449;SDS011;22475;51.390;7.180;2024-03-06T08:17:02;36.55;;;18.88;;
36449;SDS011;22475;51.390;7.180;2024-03-06T08:19:29;34.78;;;16.85;;
36449;SDS011;22475;51.390;7.180;2024-03-06T08:21:57;30.42;;;17.45;;
36449;SDS011;22475;51.390;7.180;2024-03-06T08:24:24;27.58;;;17.55;;
36449;SDS011;22475;51.390;7.180;2024-03-06T08:26:51;30.27;;;18.30;;
36449;SDS011;22475;51.390;7.180;2024-03-06T08:29:18;36.55;;;21.60;;
36449;SDS011;22475;51.390;7.180;2024-03-06T08:31:45;35.17;;;20.20;;
36449;SDS011;22475;51.390;7.180;2024-03-06T08:34:12;38.42;;;20.77;;
36449;SDS011;22475;51.390;7.180;2024-03-06T08:36:38;33.45;;;19.02;;
36449;SDS011;22475;51.390;7.180;2024-03-06T08:39:07;36.92;;;19.27;;
36449;SDS011;22475;51.390;7.180;2024-03-06T08:41:37;32.15;;;18.08;;
36449;SDS011;22475;51.390;7.180;2024-03-06T08:44:04;36.67;;;19.65;;
36449;SDS011;22475;51.390;7.180;2024-03-06T08:46:31;27.58;;;17.75;;
36449;SDS011;22475;51.390;7.180;2024-03-06T08:48:58;30.73;;;17.13;;
36449;SDS011;22475;51.390;7.180;2024-03-06T08:51:26;29.58;;;17.52;;
36449;SDS011;22475;51.390;7.180;2024-03-06T08:53:53;27.08;;;16.48;;
36449;SDS011;22475;51.390;7.180;2024-03-06T08:56:21;30.75;;;18.23;;
36449;SDS011;22475;51.390;7.180;2024-03-06T08:58:49;30.58;;;18.70;;
36449;SDS011;22475;51.390;7.180;2024-03-06T09:01:15;34.60;;;18.33;;
36449;SDS011;22475;51.390;7.180;2024-03-06T09:03:42;30.58;;;16.67;;
36449;SDS011;22475;51.390;7.180;2024-03-06T09:06:09;29.55;;;17.88;;
36449;SDS011;22475;51.390;7.180;2024-03-06T09:08:37;31.48;;;16.63;;
36449;SDS011;22475;51.390;7.180;2024-03-06T09:11:04;38.47;;;18.95;;
36449;SDS011;22475;51.390;7.180;2024-03-06T09:13:32;31.02;;;17.95;;
36449;SDS011;22475;51.390;7.180;2024-03-06T09:15:59;33.30;;;17.33;;
36449;SDS011;22475;51.390;7.180;2024-03-06T09:18:26;28.30;;;16.13;;
36449;SDS011;22475;51.390;7.180;2024-03-06T09:20:53;25.15;;;16.25;;
36449;SDS011;22475;51.390;7.180;2024-03-06T09:23:20;29.67;;;18.17;;
36449;SDS011;22475;51.390;7.180;2024-03-06T09:25:46;31.80;;;17.10;;
36449;SDS011;22475;51.390;7.180;2024-03-06T09:28:14;29.45;;;17.33;;
36449;SDS011;22475;51.390;7.180;2024-03-06T09:30:42;33.58;;;20.17;;
36449;SDS011;22475;51.390;7.180;2024-03-06T09:33:09;37.15;;;19.25;;
36449;SDS011;22475;51.390;7.180;2024-03-06T09:35:36;32.30;;;18.70;;
36449;SDS011;22475;51.390;7.180;2024-03-06T09:38:03;32.72;;;17.92;;
36449;SDS011;22475;51.390;7.180;2024-03-06T09:40:30;30.02;;;18.27;;
36449;SDS011;22475;51.390;7.180;2024-03-06T09:42:57;35.13;;;18.73;;
36449;SDS011;22475;51.390;7.180;2024-03-06T09:45:24;31.83;;;18.15;;
36449;SDS011;22475;51.390;7.180;2024-03-06T09:47:52;30.67;;;17.40;;
36449;SDS011;22475;51.390;7.180;2024-03-06T09:50:22;33.97;;;18.45;;
36449;SDS011;22475;51.390;7.180;2024-03-06T09:52:51;29.13;;;17.23;;
36449;SDS011;22475;51.390;7.180;2024-03-06T09:55:20;31.58;;;18.50;;
36449;SDS011;22475;51.390;7.180;2024-03-06T09:57:48;32.08;;;18.35;;
36449;SDS011;22475;51.390;7.180;2024-03-06T10:00:15;30.92;;;18.27;;
36449;SDS011;22475;51.390;7.180;2024-03-06T10:02:46;30.33;;;17.75;;
36449;SDS011;22475;51.390;7.180;2024-03-06T10:05:22;32.40;;;17.40;;
36449;SDS011;22475;51.390;7.180;2024-03-06T10:07:49;33.13;;;20.73;;
36449;SDS011;22475;51.390;7.180;2024-03-06T10:10:17;46.38;;;22.58;;
36449;SDS011;22475;51.390;7.180;2024-03-06T10:12:45;38.30;;;18.73;;
36449;SDS011;22475;51.390;7.180;2024-03-06T10:15:13;33.38;;;19.58;;
36449;SDS011;22475;51.390;7.180;2024-03-06T10:17:40;34.75;;;20.45;;
36449;SDS011;22475;51.390;7.180;2024-03-06T10:22:53;35.05;;;18.02;;
36449;SDS011;22475;51.390;7.180;2024-03-06T10:25:21;36.33;;;19.08;;
36449;SDS011;22475;51.390;7.180;2024-03-06T10:28:02;36.83;;;19.15;;
36449;SDS011;22475;51.390;7.180;2024-03-06T10:30:30;32.17;;;18.75;;
36449;SDS011;22475;51.390;7.180;2024-03-06T10:32:58;36.33;;;21.08;;
36449;SDS011;22475;51.390;7.180;2024-03-06T10:35:26;37.25;;;19.48;;
36449;SDS011;22475;51.390;7.180;2024-03-06T10:37:54;35.15;;;18.45;;
36449;SDS011;22475;51.390;7.180;2024-03-06T10:40:21;34.88;;;19.55;;
36449;SDS011;22475;51.390;7.180;2024-03-06T10:42:49;35.00;;;18.73;;
36449;SDS011;22475;51.390;7.180;2024-03-06T10:45:17;32.50;;;19.38;;
36449;SDS011;22475;51.390;7.180;2024-03-06T10:47:47;35.33;;;21.05;;
36449;SDS011;22475;51.390;7.180;2024-03-06T10:50:15;31.02;;;18.48;;
36449;SDS011;22475;51.390;7.180;2024-03-06T10:52:44;33.83;;;17.75;;
36449;SDS011;22475;51.390;7.180;2024-03-06T10:55:13;40.10;;;17.77;;
36449;SDS011;22475;51.390;7.180;2024-03-06T10:57:41;27.20;;;16.27;;
36449;SDS011;22475;51.390;7.180;2024-03-06T11:00:09;29.80;;;17.40;;
36449;SDS011;22475;51.390;7.180;2024-03-06T11:02:41;28.10;;;15.05;;
36449;SDS011;22475;51.390;7.180;2024-03-06T11:05:09;34.22;;;18.92;;
36449;SDS011;22475;51.390;7.180;2024-03-06T11:07:36;27.75;;;14.60;;
36449;SDS011;22475;51.390;7.180;2024-03-06T11:10:05;34.97;;;19.15;;
36449;SDS011;22475;51.390;7.180;2024-03-06T11:12:33;25.15;;;13.35;;
36449;SDS011;22475;51.390;7.180;2024-03-06T11:15:08;33.78;;;17.67;;
36449;SDS011;22475;51.390;7.180;2024-03-06T11:17:36;29.40;;;17.48;;
36449;SDS011;22475;51.390;7.180;2024-03-06T11:23:02;21.27;;;12.98;;
36449;SDS011;22475;51.390;7.180;2024-03-06T11:28:24;20.15;;;12.50;;
36449;SDS011;22475;51.390;7.180;2024-03-06T11:30:55;24.88;;;14.70;;
36449;SDS011;22475;51.390;7.180;2024-03-06T11:33:23;27.13;;;15.52;;
36449;SDS011;22475;51.390;7.180;2024-03-06T11:38:42;30.02;;;15.60;;
36449;SDS011;22475;51.390;7.180;2024-03-06T11:41:10;27.45;;;15.23;;
36449;SDS011;22475;51.390;7.180;2024-03-06T11:43:41;29.40;;;15.88;;
36449;SDS011;22475;51.390;7.180;2024-03-06T11:46:09;24.25;;;13.50;;
36449;SDS011;22475;51.390;7.180;2024-03-06T11:48:36;21.15;;;14.45;;
36449;SDS011;22475;51.390;7.180;2024-03-06T11:51:03;29.85;;;15.95;;
36449;SDS011;22475;51.390;7.180;2024-03-06T11:53:30;27.73;;;15.50;;
36449;SDS011;22475;51.390;7.180;2024-03-06T11:55:59;30.10;;;16.95;;
36449;SDS011;22475;51.390;7.180;2024-03-06T11:58:28;29.42;;;16.25;;
36449;SDS011;22475;51.390;7.180;2024-03-06T12:00:55;27.40;;;15.77;;
36449;SDS011;22475;51.390;7.180;2024-03-06T12:03:22;28.50;;;15.23;;
36449;SDS011;22475;51.390;7.180;2024-03-06T12:05:50;23.80;;;13.68;;
36449;SDS011;22475;51.390;7.180;2024-03-06T12:08:17;30.50;;;16.45;;
36449;SDS011;22475;51.390;7.180;2024-03-06T12:10:45;22.00;;;13.13;;
36449;SDS011;22475;51.390;7.180;2024-03-06T12:13:12;21.08;;;12.57;;
36449;SDS011;22475;51.390;7.180;2024-03-06T12:15:43;21.23;;;13.40;;
36449;SDS011;22475;51.390;7.180;2024-03-06T12:18:10;27.45;;;11.70;;
36449;SDS011;22475;51.390;7.180;2024-03-06T12:20:40;22.95;;;12.25;;
36449;SDS011;22475;51.390;7.180;2024-03-06T12:23:10;22.50;;;12.52;;
36449;SDS011;22475;51.390;7.180;2024-03-06T12:25:47;22.50;;;14.00;;
36449;SDS011;22475;51.390;7.180;2024-03-06T12:28:13;26.92;;;14.73;;
36449;SDS011;22475;51.390;7.180;2024-03-06T12:30:41;29.00;;;15.45;;
36449;SDS011;22475;51.390;7.180;2024-03-06T12:33:10;30.98;;;13.07;;
36449;SDS011;22475;51.390;7.180;2024-03-06T12:35:39;31.50;;;14.68;;
36449;SDS011;22475;51.390;7.180;2024-03-06T12:38:11;25.48;;;13.95;;
36449;SDS011;22475;51.390;7.180;2024-03-06T12:40:39;21.95;;;12.80;;
36449;SDS011;22475;51.390;7.180;2024-03-06T12:43:06;20.63;;;12.00;;
36449;SDS011;22475;51.390;7.180;2024-03-06T12:45:33;24.10;;;13.25;;
36449;SDS011;22475;51.390;7.180;2024-03-06T12:48:02;18.77;;;12.20;;
36449;SDS011;22475;51.390;7.180;2024-03-06T12:50:29;20.73;;;12.50;;
36449;SDS011;22475;51.390;7.180;2024-03-06T12:52:56;26.65;;;15.98;;
36449;SDS011;22475;51.390;7.180;2024-03-06T12:55:23;35.10;;;17.02;;
36449;SDS011;22475;51.390;7.180;2024-03-06T12:57:51;41.05;;;19.27;;
36449;SDS011;22475;51.390;7.180;2024-03-06T13:00:18;33.05;;;17.33;;
36449;SDS011;22475;51.390;7.180;2024-03-06T13:02:45;30.35;;;17.90;;
36449;SDS011;22475;51.390;7.180;2024-03-06T13:05:13;27.92;;;15.27;;
36449;SDS011;22475;51.390;7.180;2024-03-06T13:07:41;29.52;;;14.98;;
36449;SDS011;22475;51.390;7.180;2024-03-06T13:10:09;26.75;;;14.68;;
36449;SDS011;22475;51.390;7.180;2024-03-06T13:12:37;29.50;;;14.85;;
36449;SDS011;22475;51.390;7.180;2024-03-06T13:15:04;26.00;;;13.02;;
36449;SDS011;22475;51.390;7.180;2024-03-06T13:17:33;27.50;;;13.20;;
36449;SDS011;22475;51.390;7.180;2024-03-06T13:20:00;28.73;;;14.00;;
36449;SDS011;22475;51.390;7.180;2024-03-06T13:22:28;23.95;;;13.32;;
36449;SDS011;22475;51.390;7.180;2024-03-06T13:24:55;26.38;;;13.43;;
36449;SDS011;22475;51.390;7.180;2024-03-06T13:27:22;25.02;;;13.52;;
36449;SDS011;22475;51.390;7.180;2024-03-06T13:29:49;24.17;;;13.77;;
36449;SDS011;22475;51.390;7.180;2024-03-06T13:32:16;23.27;;;12.75;;
36449;SDS011;22475;51.390;7.180;2024-03-06T13:34:43;33.22;;;13.27;;
36449;SDS011;22475;51.390;7.180;2024-03-06T13:37:10;24.65;;;13.93;;
36449;SDS011;22475;51.390;7.180;2024-03-06T13:39:38;27.73;;;14.18;;
36449;SDS011;22475;51.390;7.180;2024-03-06T13:42:05;22.17;;;12.65;;
36449;SDS011;22475;51.390;7.180;2024-03-06T13:44:33;23.75;;;12.30;;
36449;SDS011;22475;51.390;7.180;2024-03-06T13:47:00;23.20;;;12.93;;
36449;SDS011;22475;51.390;7.180;2024-03-06T13:49:34;18.73;;;11.00;;
36449;SDS011;22475;51.390;7.180;2024-03-06T13:52:02;17.40;;;11.52;;
36449;SDS011;22475;51.390;7.180;2024-03-06T13:54:32;17.25;;;11.25;;
36449;SDS011;22475;51.390;7.180;2024-03-06T13:57:00;22.88;;;12.27;;
36449;SDS011;22475;51.390;7.180;2024-03-06T13:59:28;20.80;;;12.65;;
36449;SDS011;22475;51.390;7.180;2024-03-06T14:01:55;24.98;;;12.15;;
36449;SDS011;22475;51.390;7.180;2024-03-06T14:04:22;25.38;;;12.27;;
36449;SDS011;22475;51.390;7.180;2024-03-06T14:06:49;30.83;;;14.45;;
36449;SDS011;22475;51.390;7.180;2024-03-06T14:09:16;18.67;;;12.43;;
36449;SDS011;22475;51.390;7.180;2024-03-06T14:11:43;26.13;;;13.02;;
36449;SDS011;22475;51.390;7.180;2024-03-06T14:14:11;19.13;;;11.18;;
36449;SDS011;22475;51.390;7.180;2024-03-06T14:16:39;20.58;;;13.80;;
36449;SDS011;22475;51.390;7.180;2024-03-06T14:19:07;24.75;;;13.85;;
36449;SDS011;22475;51.390;7.180;2024-03-06T14:21:34;28.63;;;16.85;;
36449;SDS011;22475;51.390;7.180;2024-03-06T14:24:01;31.30;;;18.95;;
36449;SDS011;22475;51.390;7.180;2024-03-06T14:26:29;29.13;;;19.58;;
36449;SDS011;22475;51.390;7.180;2024-03-06T14:28:56;40.63;;;20.63;;
36449;SDS011;22475;51.390;7.180;2024-03-06T14:31:24;33.40;;;20.73;;
36449;SDS011;22475;51.390;7.180;2024-03-06T14:33:51;36.40;;;19.73;;
36449;SDS011;22475;51.390;7.180;2024-03-06T14:36:18;30.30;;;19.52;;